sensor_id;sensor_type;location;lat;lon;timestamp;temperature;humidity
74155;DHT22;62509;46.248;6.018;2022-08-01T00:04:31;24.90;31.60
74155;DHT22;62509;46.248;6.018;2022-08-01T00:09:33;24.70;32.20
74155;DHT22;62509;46.248;6.018;2022-08-01T00:14:35;24.70;32.30
74155;DHT22;62509;46.248;6.018;2022-08-01T00:19:36;24.60;32.80
74155;DHT22;62509;46.248;6.018;2022-08-01T00:24:38;24.50;32.90
74155;DHT22;62509;46.248;6.018;2022-08-01T00:29:40;24.40;33.40
74155;DHT22;62509;46.248;6.018;2022-08-01T00:35:02;24.30;33.70
74155;DHT22;62509;46.248;6.018;2022-08-01T00:40:03;24.10;34.90
74155;DHT22;62509;46.248;6.018;2022-08-01T00:45:05;24.10;33.80
74155;DHT22;62509;46.248;6.018;2022-08-01T00:50:07;24.10;34.20
74155;DHT22;62509;46.248;6.018;2022-08-01T00:55:09;24.10;34.00
74155;DHT22;62509;46.248;6.018;2022-08-01T01:00:15;24.10;33.80
74155;DHT22;62509;46.248;6.018;2022-08-01T01:05:17;24.00;34.30
74155;DHT22;62509;46.248;6.018;2022-08-01T01:15:28;23.80;34.60
74155;DHT22;62509;46.248;6.018;2022-08-01T01:20:34;23.50;35.30
74155;DHT22;62509;46.248;6.018;2022-08-01T01:30:38;23.60;35.50
74155;DHT22;62509;46.248;6.018;2022-08-01T01:35:42;23.40;35.50
74155;DHT22;62509;46.248;6.018;2022-08-01T01:40:46;23.40;35.90
74155;DHT22;62509;46.248;6.018;2022-08-01T01:45:48;23.30;36.10
74155;DHT22;62509;46.248;6.018;2022-08-01T01:50:53;23.30;36.10
74155;DHT22;62509;46.248;6.018;2022-08-01T01:55:55;23.30;36.30
74155;DHT22;62509;46.248;6.018;2022-08-01T02:00:59;23.20;36.70
74155;DHT22;62509;46.248;6.018;2022-08-01T02:06:04;23.10;37.00
74155;DHT22;62509;46.248;6.018;2022-08-01T02:11:06;23.10;37.10
74155;DHT22;62509;46.248;6.018;2022-08-01T02:16:21;23.00;36.80
74155;DHT22;62509;46.248;6.018;2022-08-01T02:21:28;22.90;37.20
74155;DHT22;62509;46.248;6.018;2022-08-01T02:26:31;22.90;37.30
74155;DHT22;62509;46.248;6.018;2022-08-01T02:31:34;22.70;37.70
74155;DHT22;62509;46.248;6.018;2022-08-01T02:36:37;22.70;38.00
74155;DHT22;62509;46.248;6.018;2022-08-01T02:41:40;22.70;37.60
74155;DHT22;62509;46.248;6.018;2022-08-01T02:46:46;22.50;38.00
74155;DHT22;62509;46.248;6.018;2022-08-01T02:51:50;22.50;38.10
74155;DHT22;62509;46.248;6.018;2022-08-01T02:56:54;22.40;38.20
74155;DHT22;62509;46.248;6.018;2022-08-01T03:01:59;22.30;38.30
74155;DHT22;62509;46.248;6.018;2022-08-01T03:07:04;22.30;38.10
74155;DHT22;62509;46.248;6.018;2022-08-01T03:12:07;22.30;38.20
74155;DHT22;62509;46.248;6.018;2022-08-01T03:17:10;22.30;38.00
74155;DHT22;62509;46.248;6.018;2022-08-01T03:22:13;22.10;38.10
74155;DHT22;62509;46.248;6.018;2022-08-01T03:27:17;22.00;38.20
74155;DHT22;62509;46.248;6.018;2022-08-01T03:32:19;22.00;38.60
74155;DHT22;62509;46.248;6.018;2022-08-01T03:37:26;21.90;38.90
74155;DHT22;62509;46.248;6.018;2022-08-01T03:42:31;21.90;38.90
74155;DHT22;62509;46.248;6.018;2022-08-01T03:47:34;21.90;38.10
74155;DHT22;62509;46.248;6.018;2022-08-01T03:52:44;21.60;38.90
74155;DHT22;62509;46.248;6.018;2022-08-01T03:57:47;21.50;38.50
74155;DHT22;62509;46.248;6.018;2022-08-01T04:02:49;21.60;38.50
74155;DHT22;62509;46.248;6.018;2022-08-01T04:07:52;21.60;38.80
74155;DHT22;62509;46.248;6.018;2022-08-01T04:12:57;21.60;38.50
74155;DHT22;62509;46.248;6.018;2022-08-01T04:17:59;21.60;38.20
74155;DHT22;62509;46.248;6.018;2022-08-01T04:23:00;21.50;38.50
74155;DHT22;62509;46.248;6.018;2022-08-01T04:28:02;21.40;39.00
74155;DHT22;62509;46.248;6.018;2022-08-01T04:33:06;21.30;39.40
74155;DHT22;62509;46.248;6.018;2022-08-01T04:38:09;21.20;39.60
74155;DHT22;62509;46.248;6.018;2022-08-01T04:43:12;21.20;39.90
74155;DHT22;62509;46.248;6.018;2022-08-01T04:48:17;21.20;40.40
74155;DHT22;62509;46.248;6.018;2022-08-01T04:53:23;21.30;39.50
74155;DHT22;62509;46.248;6.018;2022-08-01T04:58:25;21.30;39.70
74155;DHT22;62509;46.248;6.018;2022-08-01T05:03:27;21.80;38.20
74155;DHT22;62509;46.248;6.018;2022-08-01T05:08:29;22.00;37.60
74155;DHT22;62509;46.248;6.018;2022-08-01T05:13:31;22.20;37.10
74155;DHT22;62509;46.248;6.018;2022-08-01T05:18:32;22.30;36.70
74155;DHT22;62509;46.248;6.018;2022-08-01T05:23:35;22.30;37.40
74155;DHT22;62509;46.248;6.018;2022-08-01T05:28:43;22.20;37.90
74155;DHT22;62509;46.248;6.018;2022-08-01T05:33:45;22.30;38.20
74155;DHT22;62509;46.248;6.018;2022-08-01T05:38:47;22.80;36.90
74155;DHT22;62509;46.248;6.018;2022-08-01T05:43:48;23.00;36.70
74155;DHT22;62509;46.248;6.018;2022-08-01T05:48:50;23.10;36.60
74155;DHT22;62509;46.248;6.018;2022-08-01T05:53:54;23.10;36.60
74155;DHT22;62509;46.248;6.018;2022-08-01T05:58:56;23.20;36.50
74155;DHT22;62509;46.248;6.018;2022-08-01T06:03:57;23.30;37.90
74155;DHT22;62509;46.248;6.018;2022-08-01T06:08:59;23.30;38.70
74155;DHT22;62509;46.248;6.018;2022-08-01T06:14:01;23.30;39.00
74155;DHT22;62509;46.248;6.018;2022-08-01T06:19:02;23.30;39.10
74155;DHT22;62509;46.248;6.018;2022-08-01T06:24:04;23.50;39.10
74155;DHT22;62509;46.248;6.018;2022-08-01T06:29:06;23.80;38.80
74155;DHT22;62509;46.248;6.018;2022-08-01T06:34:10;24.00;38.20
74155;DHT22;62509;46.248;6.018;2022-08-01T06:39:12;24.10;38.30
74155;DHT22;62509;46.248;6.018;2022-08-01T06:44:13;24.20;38.40
74155;DHT22;62509;46.248;6.018;2022-08-01T06:49:15;24.20;38.30
74155;DHT22;62509;46.248;6.018;2022-08-01T06:54:17;24.30;38.30
74155;DHT22;62509;46.248;6.018;2022-08-01T06:59:18;24.40;38.20
74155;DHT22;62509;46.248;6.018;2022-08-01T07:04:20;24.40;38.10
74155;DHT22;62509;46.248;6.018;2022-08-01T07:09:22;24.40;37.90
74155;DHT22;62509;46.248;6.018;2022-08-01T07:14:23;24.50;37.80
74155;DHT22;62509;46.248;6.018;2022-08-01T07:19:25;24.50;37.90
74155;DHT22;62509;46.248;6.018;2022-08-01T07:24:28;24.60;37.90
74155;DHT22;62509;46.248;6.018;2022-08-01T07:29:30;24.60;37.70
74155;DHT22;62509;46.248;6.018;2022-08-01T07:34:32;24.70;37.60
74155;DHT22;62509;46.248;6.018;2022-08-01T07:39:33;24.70;37.50
74155;DHT22;62509;46.248;6.018;2022-08-01T07:44:35;24.70;37.50
74155;DHT22;62509;46.248;6.018;2022-08-01T07:49:37;24.70;37.30
74155;DHT22;62509;46.248;6.018;2022-08-01T07:54:41;24.80;37.30
74155;DHT22;62509;46.248;6.018;2022-08-01T07:59:43;24.80;37.20
74155;DHT22;62509;46.248;6.018;2022-08-01T08:04:44;24.80;37.00
74155;DHT22;62509;46.248;6.018;2022-08-01T08:09:49;24.90;36.90
74155;DHT22;62509;46.248;6.018;2022-08-01T08:14:51;24.90;36.90
74155;DHT22;62509;46.248;6.018;2022-08-01T08:19:53;24.90;36.70
74155;DHT22;62509;46.248;6.018;2022-08-01T08:24:55;24.90;36.60
74155;DHT22;62509;46.248;6.018;2022-08-01T08:30:01;24.90;36.50
74155;DHT22;62509;46.248;6.018;2022-08-01T08:35:04;25.00;36.40
74155;DHT22;62509;46.248;6.018;2022-08-01T08:40:07;25.00;36.30
74155;DHT22;62509;46.248;6.018;2022-08-01T08:45:09;25.00;36.30
74155;DHT22;62509;46.248;6.018;2022-08-01T08:50:12;25.00;36.10
74155;DHT22;62509;46.248;6.018;2022-08-01T08:55:15;25.10;36.10
74155;DHT22;62509;46.248;6.018;2022-08-01T09:00:17;25.10;36.00
74155;DHT22;62509;46.248;6.018;2022-08-01T09:05:19;25.10;35.90
74155;DHT22;62509;46.248;6.018;2022-08-01T09:10:39;25.20;35.90
74155;DHT22;62509;46.248;6.018;2022-08-01T09:15:41;25.20;35.80
74155;DHT22;62509;46.248;6.018;2022-08-01T09:20:44;25.20;35.80
74155;DHT22;62509;46.248;6.018;2022-08-01T09:25:52;25.20;35.80
74155;DHT22;62509;46.248;6.018;2022-08-01T09:31:05;25.20;35.70
74155;DHT22;62509;46.248;6.018;2022-08-01T09:36:08;25.20;35.60
74155;DHT22;62509;46.248;6.018;2022-08-01T09:41:13;25.30;35.60
74155;DHT22;62509;46.248;6.018;2022-08-01T09:46:15;25.30;35.60
74155;DHT22;62509;46.248;6.018;2022-08-01T09:56:51;25.30;35.50
74155;DHT22;62509;46.248;6.018;2022-08-01T10:01:53;25.40;35.60
74155;DHT22;62509;46.248;6.018;2022-08-01T10:07:02;25.40;35.50
74155;DHT22;62509;46.248;6.018;2022-08-01T10:12:05;25.40;35.50
74155;DHT22;62509;46.248;6.018;2022-08-01T10:17:10;25.40;35.40
74155;DHT22;62509;46.248;6.018;2022-08-01T10:22:19;25.40;35.40
74155;DHT22;62509;46.248;6.018;2022-08-01T10:27:23;25.40;35.40
74155;DHT22;62509;46.248;6.018;2022-08-01T10:32:40;25.40;35.30
74155;DHT22;62509;46.248;6.018;2022-08-01T10:37:51;25.50;35.90
74155;DHT22;62509;46.248;6.018;2022-08-01T10:42:59;25.50;35.30
74155;DHT22;62509;46.248;6.018;2022-08-01T10:48:05;25.50;35.20
74155;DHT22;62509;46.248;6.018;2022-08-01T10:58:27;25.50;35.00
74155;DHT22;62509;46.248;6.018;2022-08-01T11:03:34;25.60;35.10
74155;DHT22;62509;46.248;6.018;2022-08-01T11:08:57;25.60;34.90
74155;DHT22;62509;46.248;6.018;2022-08-01T11:14:02;25.60;34.90
74155;DHT22;62509;46.248;6.018;2022-08-01T11:19:11;25.60;34.80
74155;DHT22;62509;46.248;6.018;2022-08-01T11:24:12;25.60;35.00
74155;DHT22;62509;46.248;6.018;2022-08-01T11:29:15;25.60;34.60
74155;DHT22;62509;46.248;6.018;2022-08-01T11:34:44;25.70;34.70
74155;DHT22;62509;46.248;6.018;2022-08-01T11:39:43;25.70;34.50
74155;DHT22;62509;46.248;6.018;2022-08-01T11:45:05;25.70;34.50
74155;DHT22;62509;46.248;6.018;2022-08-01T11:50:12;25.70;34.60
74155;DHT22;62509;46.248;6.018;2022-08-01T11:55:29;25.70;34.40
74155;DHT22;62509;46.248;6.018;2022-08-01T12:00:32;25.70;34.30
74155;DHT22;62509;46.248;6.018;2022-08-01T12:05:35;25.70;34.30
74155;DHT22;62509;46.248;6.018;2022-08-01T12:10:49;25.70;34.20
74155;DHT22;62509;46.248;6.018;2022-08-01T12:15:51;25.70;34.10
74155;DHT22;62509;46.248;6.018;2022-08-01T12:21:00;25.70;34.10
74155;DHT22;62509;46.248;6.018;2022-08-01T12:26:03;25.80;34.10
74155;DHT22;62509;46.248;6.018;2022-08-01T12:31:05;25.80;34.00
74155;DHT22;62509;46.248;6.018;2022-08-01T12:36:07;25.80;33.90
74155;DHT22;62509;46.248;6.018;2022-08-01T12:41:15;25.80;33.90
74155;DHT22;62509;46.248;6.018;2022-08-01T12:46:17;25.80;33.90
74155;DHT22;62509;46.248;6.018;2022-08-01T12:51:19;25.90;33.90
74155;DHT22;62509;46.248;6.018;2022-08-01T12:56:22;25.80;33.80
74155;DHT22;62509;46.248;6.018;2022-08-01T13:01:32;25.90;33.90
74155;DHT22;62509;46.248;6.018;2022-08-01T13:06:34;25.80;33.80
74155;DHT22;62509;46.248;6.018;2022-08-01T13:11:37;25.90;33.80
74155;DHT22;62509;46.248;6.018;2022-08-01T13:16:54;25.90;33.80
74155;DHT22;62509;46.248;6.018;2022-08-01T13:21:58;25.90;33.80
74155;DHT22;62509;46.248;6.018;2022-08-01T13:27:00;25.90;33.80
74155;DHT22;62509;46.248;6.018;2022-08-01T13:32:12;26.00;33.80
74155;DHT22;62509;46.248;6.018;2022-08-01T13:37:29;26.00;33.90
74155;DHT22;62509;46.248;6.018;2022-08-01T13:42:32;26.00;33.90
74155;DHT22;62509;46.248;6.018;2022-08-01T13:47:34;26.00;34.00
74155;DHT22;62509;46.248;6.018;2022-08-01T13:52:36;26.00;34.10
74155;DHT22;62509;46.248;6.018;2022-08-01T13:57:38;26.00;34.10
74155;DHT22;62509;46.248;6.018;2022-08-01T14:02:39;26.00;34.10
74155;DHT22;62509;46.248;6.018;2022-08-01T14:07:41;26.00;34.20
74155;DHT22;62509;46.248;6.018;2022-08-01T14:12:49;26.00;34.30
74155;DHT22;62509;46.248;6.018;2022-08-01T14:17:51;26.10;34.50
74155;DHT22;62509;46.248;6.018;2022-08-01T14:22:53;26.10;34.50
74155;DHT22;62509;46.248;6.018;2022-08-01T14:27:55;26.10;34.50
74155;DHT22;62509;46.248;6.018;2022-08-01T14:32:56;26.10;34.50
74155;DHT22;62509;46.248;6.018;2022-08-01T14:37:58;26.10;34.50
74155;DHT22;62509;46.248;6.018;2022-08-01T14:43:00;26.10;34.50
74155;DHT22;62509;46.248;6.018;2022-08-01T14:48:02;26.20;34.50
74155;DHT22;62509;46.248;6.018;2022-08-01T14:53:04;26.10;34.30
74155;DHT22;62509;46.248;6.018;2022-08-01T14:58:06;26.20;34.20
74155;DHT22;62509;46.248;6.018;2022-08-01T15:03:07;26.20;34.10
74155;DHT22;62509;46.248;6.018;2022-08-01T15:08:09;26.20;34.10
74155;DHT22;62509;46.248;6.018;2022-08-01T15:13:11;26.20;34.00
74155;DHT22;62509;46.248;6.018;2022-08-01T15:18:12;26.20;33.90
74155;DHT22;62509;46.248;6.018;2022-08-01T15:23:14;26.30;33.90
74155;DHT22;62509;46.248;6.018;2022-08-01T15:28:16;26.30;33.80
74155;DHT22;62509;46.248;6.018;2022-08-01T15:33:17;26.30;33.80
74155;DHT22;62509;46.248;6.018;2022-08-01T15:38:19;26.30;33.70
74155;DHT22;62509;46.248;6.018;2022-08-01T15:43:22;26.30;33.60
74155;DHT22;62509;46.248;6.018;2022-08-01T15:48:27;26.30;33.50
74155;DHT22;62509;46.248;6.018;2022-08-01T15:53:29;26.30;33.50
74155;DHT22;62509;46.248;6.018;2022-08-01T15:58:31;26.30;33.40
74155;DHT22;62509;46.248;6.018;2022-08-01T16:03:34;26.40;33.40
74155;DHT22;62509;46.248;6.018;2022-08-01T16:08:35;26.40;33.30
74155;DHT22;62509;46.248;6.018;2022-08-01T16:13:37;26.40;33.20
74155;DHT22;62509;46.248;6.018;2022-08-01T16:18:39;26.60;28.90
74155;DHT22;62509;46.248;6.018;2022-08-01T16:23:41;27.00;24.90
74155;DHT22;62509;46.248;6.018;2022-08-01T16:28:43;27.10;25.40
74155;DHT22;62509;46.248;6.018;2022-08-01T16:33:49;27.30;24.20
74155;DHT22;62509;46.248;6.018;2022-08-01T16:38:56;27.40;24.00
74155;DHT22;62509;46.248;6.018;2022-08-01T16:43:58;27.50;24.50
74155;DHT22;62509;46.248;6.018;2022-08-01T16:49:00;27.00;25.50
74155;DHT22;62509;46.248;6.018;2022-08-01T16:54:02;26.90;26.10
74155;DHT22;62509;46.248;6.018;2022-08-01T16:59:24;26.80;26.50
74155;DHT22;62509;46.248;6.018;2022-08-01T17:04:25;26.80;26.80
74155;DHT22;62509;46.248;6.018;2022-08-01T17:09:27;26.80;27.10
74155;DHT22;62509;46.248;6.018;2022-08-01T17:14:29;26.80;27.60
74155;DHT22;62509;46.248;6.018;2022-08-01T17:19:32;26.90;26.80
74155;DHT22;62509;46.248;6.018;2022-08-01T17:24:33;27.10;26.10
74155;DHT22;62509;46.248;6.018;2022-08-01T17:29:35;27.10;25.70
74155;DHT22;62509;46.248;6.018;2022-08-01T17:34:44;27.20;25.60
74155;DHT22;62509;46.248;6.018;2022-08-01T17:39:46;27.20;25.40
74155;DHT22;62509;46.248;6.018;2022-08-01T17:44:48;27.20;25.70
74155;DHT22;62509;46.248;6.018;2022-08-01T17:49:54;27.10;25.90
74155;DHT22;62509;46.248;6.018;2022-08-01T17:54:56;27.20;25.70
74155;DHT22;62509;46.248;6.018;2022-08-01T17:59:58;27.10;25.60
74155;DHT22;62509;46.248;6.018;2022-08-01T18:05:00;27.10;25.70
74155;DHT22;62509;46.248;6.018;2022-08-01T18:10:05;27.10;25.50
74155;DHT22;62509;46.248;6.018;2022-08-01T18:15:12;27.20;25.10
74155;DHT22;62509;46.248;6.018;2022-08-01T18:20:15;27.20;25.60
74155;DHT22;62509;46.248;6.018;2022-08-01T18:25:17;27.20;25.80
74155;DHT22;62509;46.248;6.018;2022-08-01T18:30:19;27.10;25.90
74155;DHT22;62509;46.248;6.018;2022-08-01T18:35:21;27.20;25.10
74155;DHT22;62509;46.248;6.018;2022-08-01T18:40:43;27.30;25.30
74155;DHT22;62509;46.248;6.018;2022-08-01T18:45:46;27.20;25.60
74155;DHT22;62509;46.248;6.018;2022-08-01T18:50:48;27.10;25.70
74155;DHT22;62509;46.248;6.018;2022-08-01T18:55:49;27.10;25.70
74155;DHT22;62509;46.248;6.018;2022-08-01T19:00:51;27.20;25.40
74155;DHT22;62509;46.248;6.018;2022-08-01T19:05:53;27.20;25.60
74155;DHT22;62509;46.248;6.018;2022-08-01T19:10:55;27.20;25.30
74155;DHT22;62509;46.248;6.018;2022-08-01T19:15:56;27.20;25.50
74155;DHT22;62509;46.248;6.018;2022-08-01T19:20:59;27.20;24.80
74155;DHT22;62509;46.248;6.018;2022-08-01T19:26:01;27.10;24.90
74155;DHT22;62509;46.248;6.018;2022-08-01T19:31:05;27.10;25.20
74155;DHT22;62509;46.248;6.018;2022-08-01T19:36:08;27.10;25.20
74155;DHT22;62509;46.248;6.018;2022-08-01T19:41:13;27.00;25.10
74155;DHT22;62509;46.248;6.018;2022-08-01T19:46:16;27.00;25.40
74155;DHT22;62509;46.248;6.018;2022-08-01T19:51:18;27.00;25.40
74155;DHT22;62509;46.248;6.018;2022-08-01T19:56:21;26.90;25.40
74155;DHT22;62509;46.248;6.018;2022-08-01T20:01:25;26.90;25.60
74155;DHT22;62509;46.248;6.018;2022-08-01T20:06:28;27.00;25.70
74155;DHT22;62509;46.248;6.018;2022-08-01T20:11:30;27.00;25.70
74155;DHT22;62509;46.248;6.018;2022-08-01T20:16:31;27.00;25.40
74155;DHT22;62509;46.248;6.018;2022-08-01T20:21:35;26.90;25.40
74155;DHT22;62509;46.248;6.018;2022-08-01T20:26:37;26.80;25.80
74155;DHT22;62509;46.248;6.018;2022-08-01T20:31:39;26.70;26.10
74155;DHT22;62509;46.248;6.018;2022-08-01T20:36:44;26.60;27.10
74155;DHT22;62509;46.248;6.018;2022-08-01T20:41:57;26.70;26.60
74155;DHT22;62509;46.248;6.018;2022-08-01T20:47:01;26.50;26.70
74155;DHT22;62509;46.248;6.018;2022-08-01T20:52:03;26.60;27.90
74155;DHT22;62509;46.248;6.018;2022-08-01T20:57:15;26.40;28.20
74155;DHT22;62509;46.248;6.018;2022-08-01T21:07:23;26.50;28.10
74155;DHT22;62509;46.248;6.018;2022-08-01T21:12:26;26.20;28.10
74155;DHT22;62509;46.248;6.018;2022-08-01T21:17:36;26.10;28.30
74155;DHT22;62509;46.248;6.018;2022-08-01T21:22:50;26.20;28.20
74155;DHT22;62509;46.248;6.018;2022-08-01T21:27:53;26.30;28.10
74155;DHT22;62509;46.248;6.018;2022-08-01T21:32:55;26.10;28.10
74155;DHT22;62509;46.248;6.018;2022-08-01T21:37:57;26.00;28.50
74155;DHT22;62509;46.248;6.018;2022-08-01T21:43:02;25.80;28.90
74155;DHT22;62509;46.248;6.018;2022-08-01T21:48:04;25.80;29.00
74155;DHT22;62509;46.248;6.018;2022-08-01T21:58:17;25.50;29.60
74155;DHT22;62509;46.248;6.018;2022-08-01T22:08:55;25.50;29.70
74155;DHT22;62509;46.248;6.018;2022-08-01T22:14:00;25.20;30.50
74155;DHT22;62509;46.248;6.018;2022-08-01T22:19:03;25.00;31.00
74155;DHT22;62509;46.248;6.018;2022-08-01T22:24:06;24.80;31.40
74155;DHT22;62509;46.248;6.018;2022-08-01T22:29:08;24.90;30.80
74155;DHT22;62509;46.248;6.018;2022-08-01T22:34:10;25.00;30.90
74155;DHT22;62509;46.248;6.018;2022-08-01T22:39:14;24.80;31.20
74155;DHT22;62509;46.248;6.018;2022-08-01T22:44:16;24.60;32.10
74155;DHT22;62509;46.248;6.018;2022-08-01T22:49:27;24.40;32.20
74155;DHT22;62509;46.248;6.018;2022-08-01T22:54:34;24.40;32.00
74155;DHT22;62509;46.248;6.018;2022-08-01T23:05:07;24.50;31.40
74155;DHT22;62509;46.248;6.018;2022-08-01T23:10:12;24.30;33.00
74155;DHT22;62509;46.248;6.018;2022-08-01T23:15:14;24.20;33.50
74155;DHT22;62509;46.248;6.018;2022-08-01T23:20:17;24.00;33.70
74155;DHT22;62509;46.248;6.018;2022-08-01T23:25:19;23.80;34.50
74155;DHT22;62509;46.248;6.018;2022-08-01T23:30:25;23.90;34.20
74155;DHT22;62509;46.248;6.018;2022-08-01T23:35:27;23.90;34.40
74155;DHT22;62509;46.248;6.018;2022-08-01T23:40:33;23.80;34.70
74155;DHT22;62509;46.248;6.018;2022-08-01T23:45:34;23.70;35.00
74155;DHT22;62509;46.248;6.018;2022-08-01T23:50:56;23.50;35.70
74155;DHT22;62509;46.248;6.018;2022-08-01T23:55:59;23.60;35.30
